Time;durP1;ratioP1;P1;durP2;ratioP2;P2;SDS_P1;SDS_P2;PMS_P1;PMS_P2;Temp;Humidity;BMP_temperature;BMP_pressure;BME280_temperature;BME280_humidity;BME280_pressure;Samples;Min_cycle;Max_cycle;Signal;HPM_P1;HPM_P2
2021/07/22 00:02:12;;;;;;;;;22.75;19.50;;;;;-143.39;100.00;63593.47;4885146;29;45292;-84
2021/07/22 00:04:38;;;;;;;;;20.75;17.00;;;;;-143.39;100.00;63593.47;4887439;29;45293;-84
2021/07/22 00:07:03;;;;;;;;;21.75;17.50;;;;;-143.39;100.00;63593.47;4877730;29;45244;-84
2021/07/22 00:09:29;;;;;;;;;20.00;15.75;;;;;-143.39;100.00;63593.47;4892456;29;45907;-84
2021/07/22 00:11:54;;;;;;;;;16.00;14.50;;;;;-143.39;100.00;63593.47;4892667;29;45282;-84
2021/07/22 00:14:19;;;;;;;;;22.00;17.50;;;;;-143.39;100.00;63593.47;4890281;29;45672;-84
2021/07/22 00:16:45;;;;;;;;;16.00;15.00;;;;;-143.39;100.00;63593.47;4870441;29;45729;-85
2021/07/22 00:19:11;;;;;;;;;22.50;20.50;;;;;-143.39;100.00;63593.47;4871336;29;47812;-85
2021/07/22 00:21:37;;;;;;;;;19.75;17.00;;;;;-143.39;100.00;63593.47;4867575;29;45395;-84
2021/07/22 00:24:03;;;;;;;;;20.75;14.75;;;;;-143.39;100.00;63593.47;4889214;29;45346;-84
2021/07/22 00:26:28;;;;;;;;;23.50;17.00;;;;;-143.39;100.00;63593.47;4878592;29;45558;-85
2021/07/22 00:28:53;;;;;;;;;19.25;14.25;;;;;-143.39;100.00;63593.47;4883415;29;46123;-85
2021/07/22 00:31:19;;;;;;;;;19.75;15.75;;;;;-143.39;100.00;63593.47;4860538;29;45847;-85
2021/07/22 00:33:47;;;;;;;;;17.50;14.50;;;;;-143.39;100.00;63593.47;4885203;29;45536;-86
2021/07/22 00:36:12;;;;;;;;;23.75;18.75;;;;;-143.39;100.00;63593.47;4857974;29;45809;-85
2021/07/22 00:38:38;;;;;;;;;20.50;16.50;;;;;-143.39;100.00;63593.47;4882321;29;45442;-85
2021/07/22 00:41:05;;;;;;;;;20.00;18.00;;;;;-143.39;100.00;63593.47;4884225;29;45213;-85
2021/07/22 00:43:30;;;;;;;;;22.75;17.25;;;;;-143.39;100.00;63593.47;4884584;29;45313;-85
2021/07/22 00:45:56;;;;;;;;;20.00;19.25;;;;;-143.39;100.00;63593.47;4876673;29;45508;-86
2021/07/22 00:48:22;;;;;;;;;17.75;16.25;;;;;-143.39;100.00;63593.47;4881989;29;45760;-85
2021/07/22 00:50:47;;;;;;;;;20.00;18.25;;;;;-143.39;100.00;63593.47;4885474;29;45231;-85
2021/07/22 00:53:12;;;;;;;;;22.75;18.50;;;;;-143.39;100.00;63593.47;4885821;29;45178;-85
2021/07/22 00:55:38;;;;;;;;;23.25;17.75;;;;;-143.39;100.00;63593.47;4866524;29;45524;-85
2021/07/22 00:58:03;;;;;;;;;23.25;17.75;;;;;-143.39;100.00;63593.47;4868256;29;47413;-85
2021/07/22 01:00:28;;;;;;;;;22.25;18.00;;;;;-143.39;100.00;63593.47;4867329;29;45675;-85
2021/07/22 01:02:54;;;;;;;;;22.50;19.50;;;;;-143.39;100.00;63593.47;4884261;29;45439;-85
2021/07/22 01:05:19;;;;;;;;;19.00;18.25;;;;;-143.39;100.00;63593.47;4879628;29;47060;-86
2021/07/22 01:07:45;;;;;;;;;19.25;17.75;;;;;-143.39;100.00;63593.47;4884221;29;45461;-84
2021/07/22 01:10:10;;;;;;;;;21.50;15.75;;;;;-143.39;100.00;63593.47;4886704;29;45414;-85
2021/07/22 01:12:36;;;;;;;;;22.50;19.25;;;;;-143.39;100.00;63593.47;4887515;29;45422;-85
2021/07/22 01:15:01;;;;;;;;;16.75;14.50;;;;;-143.39;100.00;63593.47;4877816;29;45533;-85
2021/07/22 01:17:35;;;;;;;;;22.00;17.50;;;;;-143.39;100.00;63593.47;4881199;29;45424;-85
2021/07/22 01:20:02;;;;;;;;;20.00;15.75;;;;;-143.39;100.00;63593.47;4888081;29;45389;-85
2021/07/22 01:22:28;;;;;;;;;17.50;16.50;;;;;-143.39;100.00;63593.47;4891361;29;46837;-85
2021/07/22 01:24:54;;;;;;;;;20.50;17.75;;;;;-143.39;100.00;63593.47;4868797;29;46252;-85
2021/07/22 01:27:19;;;;;;;;;18.00;16.75;;;;;-143.39;100.00;63593.47;4886734;29;45357;-85
2021/07/22 01:29:44;;;;;;;;;16.50;15.50;;;;;-143.39;100.00;63593.47;4887421;29;45321;-85
2021/07/22 01:32:10;;;;;;;;;18.75;16.25;;;;;-143.39;100.00;63593.47;4870120;29;45342;-85
2021/07/22 01:34:35;;;;;;;;;19.00;15.25;;;;;-143.39;100.00;63593.47;4884133;29;45309;-85
2021/07/22 01:37:00;;;;;;;;;23.25;19.25;;;;;-143.39;100.00;63593.47;4886955;29;46170;-85
2021/07/22 01:39:26;;;;;;;;;15.75;14.25;;;;;-143.39;100.00;63593.47;4869639;29;45215;-85
2021/07/22 01:41:51;;;;;;;;;19.00;16.75;;;;;-143.39;100.00;63593.47;4888085;29;45343;-85
2021/07/22 01:44:17;;;;;;;;;21.50;19.50;;;;;-143.39;100.00;63593.47;4888473;29;45483;-85
2021/07/22 01:46:42;;;;;;;;;22.75;18.00;;;;;-143.39;100.00;63593.47;4881875;29;45532;-85
2021/07/22 01:49:07;;;;;;;;;24.75;19.50;;;;;-143.39;100.00;63593.47;4869803;29;45243;-85
2021/07/22 01:51:33;;;;;;;;;19.75;16.75;;;;;-143.39;100.00;63593.47;4887179;29;45885;-85
2021/07/22 01:53:58;;;;;;;;;27.25;19.75;;;;;-143.39;100.00;63593.47;4882832;29;45555;-85
2021/07/22 01:56:24;;;;;;;;;21.25;17.75;;;;;-143.39;100.00;63593.47;4885921;29;45498;-85
2021/07/22 01:58:49;;;;;;;;;21.00;17.25;;;;;-143.39;100.00;63593.47;4884734;29;45752;-85
2021/07/22 02:01:15;;;;;;;;;19.50;17.50;;;;;-143.39;100.00;63593.47;4887126;29;45442;-85
2021/07/22 02:03:40;;;;;;;;;23.00;18.50;;;;;-143.39;100.00;63593.47;4886499;29;45241;-85
2021/07/22 02:06:09;;;;;;;;;19.25;16.50;;;;;-143.39;100.00;63593.47;4886583;29;45418;-85
2021/07/22 02:08:35;;;;;;;;;19.00;16.00;;;;;-143.39;100.00;63593.47;4878483;29;46062;-85
2021/07/22 02:11:04;;;;;;;;;20.25;17.25;;;;;-143.39;100.00;63593.47;4890301;29;45325;-85
2021/07/22 02:13:30;;;;;;;;;19.00;13.50;;;;;-143.39;100.00;63593.47;4887076;29;45582;-85
2021/07/22 02:15:56;;;;;;;;;19.75;16.75;;;;;-143.39;100.00;63593.47;4887692;29;46871;-85
2021/07/22 02:18:21;;;;;;;;;20.00;16.25;;;;;-143.39;100.00;63593.47;4877995;29;45379;-85
2021/07/22 02:20:47;;;;;;;;;19.00;16.50;;;;;-143.39;100.00;63593.47;4887648;29;45422;-85
2021/07/22 02:23:12;;;;;;;;;19.00;16.00;;;;;-143.39;100.00;63593.47;4890305;29;45466;-85
2021/07/22 02:25:38;;;;;;;;;16.00;14.50;;;;;-143.39;100.00;63593.47;4890873;29;45416;-85
2021/07/22 02:28:04;;;;;;;;;20.00;15.50;;;;;-143.39;100.00;63593.47;4887549;29;45388;-85
2021/07/22 02:30:29;;;;;;;;;17.00;17.00;;;;;-143.39;100.00;63593.47;4891145;29;45404;-85
2021/07/22 02:32:55;;;;;;;;;16.50;14.25;;;;;-143.39;100.00;63593.47;4890765;29;45480;-85
2021/07/22 02:35:20;;;;;;;;;20.00;16.25;;;;;-143.39;100.00;63593.47;4889044;29;45589;-84
2021/07/22 02:37:46;;;;;;;;;16.00;15.75;;;;;-143.39;100.00;63593.47;4883658;29;45395;-85
2021/07/22 02:40:13;;;;;;;;;19.25;17.00;;;;;-143.39;100.00;63593.47;4872305;29;45294;-85
2021/07/22 02:42:38;;;;;;;;;18.75;16.50;;;;;-143.39;100.00;63593.47;4870649;29;45378;-85
2021/07/22 02:45:06;;;;;;;;;21.00;18.25;;;;;-143.39;100.00;63593.47;4872285;29;47149;-85
2021/07/22 02:47:31;;;;;;;;;21.50;15.50;;;;;-143.39;100.00;63593.47;4867964;29;45264;-85
2021/07/22 02:49:58;;;;;;;;;19.00;14.75;;;;;-143.39;100.00;63593.47;4874362;29;45505;-85
2021/07/22 02:52:23;;;;;;;;;20.75;15.50;;;;;-143.39;100.00;63593.47;4892953;29;45346;-85
2021/07/22 02:54:49;;;;;;;;;18.00;15.00;;;;;-143.39;100.00;63593.47;4893639;29;45354;-84
2021/07/22 02:57:14;;;;;;;;;19.50;16.75;;;;;-143.39;100.00;63593.47;4891173;29;45254;-85
2021/07/22 02:59:40;;;;;;;;;16.00;15.00;;;;;-143.39;100.00;63593.47;4893020;29;45231;-84
2021/07/22 03:02:07;;;;;;;;;26.00;16.00;;;;;-143.39;100.00;63593.47;4893643;29;45480;-85
2021/07/22 03:04:32;;;;;;;;;18.00;15.75;;;;;-143.39;100.00;63593.47;4900939;29;46560;-85
2021/07/22 03:06:59;;;;;;;;;16.25;14.75;;;;;-143.39;100.00;63593.47;4899833;29;45245;-85
2021/07/22 03:09:26;;;;;;;;;21.50;18.00;;;;;-143.39;100.00;63593.47;4875819;29;44834;-85
2021/07/22 03:11:52;;;;;;;;;20.75;15.50;;;;;-143.39;100.00;63593.47;4884225;29;45391;-85
2021/07/22 03:14:18;;;;;;;;;19.25;16.00;;;;;-143.39;100.00;63593.47;4890069;28;47280;-85
2021/07/22 03:16:43;;;;;;;;;20.75;18.50;;;;;-143.39;100.00;63593.47;4868086;29;45322;-85
2021/07/22 03:19:08;;;;;;;;;19.50;18.75;;;;;-143.39;100.00;63593.47;4873045;29;45897;-85
2021/07/22 03:21:34;;;;;;;;;15.25;15.25;;;;;-143.39;100.00;63593.47;4870045;29;45251;-85
2021/07/22 03:24:00;;;;;;;;;19.25;17.75;;;;;-143.39;100.00;63593.47;4868537;29;47602;-85
2021/07/22 03:26:25;;;;;;;;;18.25;15.25;;;;;-143.39;100.00;63593.47;4877847;29;45463;-85
2021/07/22 03:28:50;;;;;;;;;24.50;19.50;;;;;-143.39;100.00;63593.47;4868190;29;45732;-85
2021/07/22 03:31:16;;;;;;;;;19.25;15.75;;;;;-143.39;100.00;63593.47;4869283;29;45437;-85
2021/07/22 03:33:41;;;;;;;;;22.25;18.25;;;;;-143.39;100.00;63593.47;4885376;29;45478;-85
2021/07/22 03:36:07;;;;;;;;;22.25;19.00;;;;;-143.39;100.00;63593.47;4867862;29;46167;-85
2021/07/22 03:38:32;;;;;;;;;18.50;15.50;;;;;-143.39;100.00;63593.47;4884523;29;45290;-85
2021/07/22 03:40:57;;;;;;;;;20.50;18.50;;;;;-143.39;100.00;63593.47;4893173;29;45226;-85
2021/07/22 03:43:23;;;;;;;;;20.25;18.00;;;;;-143.39;100.00;63593.47;4892492;29;45453;-85
2021/07/22 03:45:56;;;;;;;;;21.00;18.00;;;;;-143.39;100.00;63593.47;4883969;29;45416;-85
2021/07/22 03:48:21;;;;;;;;;17.25;15.75;;;;;-143.39;100.00;63593.47;4882105;29;45264;-84
2021/07/22 03:50:50;;;;;;;;;18.75;16.00;;;;;-143.39;100.00;63593.47;4886312;29;45178;-85
2021/07/22 03:53:15;;;;;;;;;21.75;19.75;;;;;-143.39;100.00;63593.47;4886440;29;45343;-85
2021/07/22 03:55:41;;;;;;;;;17.25;17.00;;;;;-143.39;100.00;63593.47;4886828;29;45482;-85
2021/07/22 03:58:06;;;;;;;;;23.25;17.50;;;;;-143.39;100.00;63593.47;4870250;29;45361;-85
2021/07/22 04:00:31;;;;;;;;;19.75;18.50;;;;;-143.39;100.00;63593.47;4885627;29;45368;-85
2021/07/22 04:03:01;;;;;;;;;20.00;17.75;;;;;-143.39;100.00;63593.47;4871477;29;48634;-85
2021/07/22 04:05:27;;;;;;;;;20.00;16.75;;;;;-143.39;100.00;63593.47;4868897;29;45797;-85
2021/07/22 04:08:00;;;;;;;;;20.25;17.25;;;;;-143.39;100.00;63593.47;4869492;29;45316;-85
2021/07/22 04:10:27;;;;;;;;;23.75;17.75;;;;;-143.39;100.00;63593.47;4885258;29;45510;-85
2021/07/22 04:12:56;;;;;;;;;20.50;16.00;;;;;-143.39;100.00;63593.47;4868054;29;47274;-85
2021/07/22 04:15:23;;;;;;;;;21.25;17.75;;;;;-143.39;100.00;63593.47;4870497;29;45661;-84
2021/07/22 04:17:53;;;;;;;;;21.00;18.25;;;;;-143.39;100.00;63593.47;4887201;29;45418;-85
2021/07/22 04:20:19;;;;;;;;;19.25;18.00;;;;;-143.39;100.00;63593.47;4881746;29;45184;-85
2021/07/22 04:22:45;;;;;;;;;21.50;18.25;;;;;-143.39;100.00;63593.47;4885080;29;45433;-84
2021/07/22 04:25:11;;;;;;;;;21.50;17.00;;;;;-143.39;100.00;63593.47;4880582;29;45457;-85
2021/07/22 04:27:36;;;;;;;;;20.75;19.75;;;;;-143.39;100.00;63593.47;4871037;29;45345;-85
2021/07/22 04:30:02;;;;;;;;;25.00;17.00;;;;;-143.39;100.00;63593.47;4888645;29;45340;-85
2021/07/22 04:32:27;;;;;;;;;18.00;16.25;;;;;-143.39;100.00;63593.47;4885916;29;45428;-85
2021/07/22 04:34:53;;;;;;;;;22.50;18.50;;;;;-143.39;100.00;63593.47;4868702;29;45345;-84
2021/07/22 04:37:18;;;;;;;;;20.00;18.25;;;;;-143.39;100.00;63593.47;4871192;29;45459;-85
2021/07/22 04:39:44;;;;;;;;;22.50;20.00;;;;;-143.39;100.00;63593.47;4887173;29;45254;-84
2021/07/22 04:42:12;;;;;;;;;19.50;16.00;;;;;-143.39;100.00;63593.47;4901006;29;45285;-85
2021/07/22 04:44:38;;;;;;;;;20.50;19.25;;;;;-143.39;100.00;63593.47;4904044;29;44946;-83
2021/07/22 04:47:06;;;;;;;;;19.75;16.50;;;;;-143.39;100.00;63593.47;4888132;29;44612;-82
2021/07/22 04:49:35;;;;;;;;;20.00;17.50;;;;;-143.39;100.00;63593.47;4905400;29;44817;-83
2021/07/22 04:52:05;;;;;;;;;20.50;19.50;;;;;-143.39;100.00;63593.47;4873670;29;47391;-84
2021/07/22 04:54:32;;;;;;;;;21.75;17.25;;;;;-143.39;100.00;63593.47;4889071;29;44892;-84
2021/07/22 04:56:57;;;;;;;;;22.75;20.00;;;;;-143.39;100.00;63593.47;4885372;29;45410;-84
2021/07/22 04:59:23;;;;;;;;;23.75;19.00;;;;;-143.39;100.00;63593.47;4884163;29;45399;-83
2021/07/22 05:01:48;;;;;;;;;26.00;20.25;;;;;-143.39;100.00;63593.47;4883992;29;45413;-84
2021/07/22 05:04:18;;;;;;;;;26.75;19.00;;;;;-143.39;100.00;63593.47;4881925;29;45432;-84
2021/07/22 05:06:43;;;;;;;;;25.75;20.00;;;;;-143.39;100.00;63593.47;4883194;29;45432;-84
2021/07/22 05:09:09;;;;;;;;;25.00;18.50;;;;;-143.39;100.00;63593.47;4882321;29;45518;-84
2021/07/22 05:11:34;;;;;;;;;19.75;19.75;;;;;-143.39;100.00;63593.47;4884444;29;45993;-84
2021/07/22 05:13:59;;;;;;;;;22.75;21.50;;;;;-143.39;100.00;63593.47;4883958;29;45383;-83
2021/07/22 05:16:25;;;;;;;;;22.00;17.00;;;;;-143.39;100.00;63593.47;4867913;29;45448;-84
2021/07/22 05:18:51;;;;;;;;;29.00;23.75;;;;;-143.39;100.00;63593.47;4882885;29;45355;-83
2021/07/22 05:21:16;;;;;;;;;24.75;22.00;;;;;-143.39;100.00;63593.47;4883556;29;46479;-83
2021/07/22 05:23:42;;;;;;;;;24.50;20.75;;;;;-143.39;100.00;63593.47;4881750;29;45471;-83
2021/07/22 05:26:11;;;;;;;;;21.25;17.75;;;;;-143.39;100.00;63593.47;4868151;29;45285;-84
2021/07/22 05:28:40;;;;;;;;;18.25;17.00;;;;;-143.39;100.00;63593.47;4886820;29;45246;-84
2021/07/22 05:31:10;;;;;;;;;23.25;18.75;;;;;-143.39;100.00;63593.47;4884408;29;47811;-83
2021/07/22 05:33:38;;;;;;;;;21.00;18.50;;;;;-143.39;100.00;63593.47;4883924;29;45258;-83
2021/07/22 05:36:06;;;;;;;;;25.00;24.00;;;;;-143.39;100.00;63593.47;4870896;29;45437;-83
2021/07/22 05:38:33;;;;;;;;;26.50;19.25;;;;;-143.39;100.00;63593.47;4887241;29;45323;-84
2021/07/22 05:41:07;;;;;;;;;23.25;20.75;;;;;-143.39;100.00;63593.47;4883700;29;45451;-84
2021/07/22 05:43:33;;;;;;;;;19.50;17.25;;;;;-143.39;100.00;63593.47;4881141;29;45535;-84
2021/07/22 05:45:58;;;;;;;;;20.50;19.50;;;;;-143.39;100.00;63593.47;4865632;29;45432;-84
2021/07/22 05:48:24;;;;;;;;;24.25;21.25;;;;;-143.39;100.00;63593.47;4867203;29;45462;-83
2021/07/22 05:50:49;;;;;;;;;23.75;21.25;;;;;-143.39;100.00;63593.47;4883949;29;45726;-83
2021/07/22 05:53:16;;;;;;;;;23.75;20.00;;;;;-143.39;100.00;63593.47;4865925;29;45244;-83
2021/07/22 05:55:41;;;;;;;;;29.50;19.50;;;;;-143.39;100.00;63593.47;4874020;29;45344;-86
2021/07/22 05:58:07;;;;;;;;;19.25;18.75;;;;;-143.39;100.00;63593.47;4866716;29;45715;-85
2021/07/22 06:00:32;;;;;;;;;29.25;21.00;;;;;-143.39;100.00;63593.47;4887119;29;45101;-85
2021/07/22 06:02:58;;;;;;;;;23.00;20.50;;;;;-143.39;100.00;63593.47;4890337;29;45264;-85
2021/07/22 06:05:26;;;;;;;;;24.50;20.00;;;;;-143.39;100.00;63593.47;4888865;29;45090;-84
2021/07/22 06:07:51;;;;;;;;;27.00;17.00;;;;;-143.39;100.00;63593.47;4870032;29;45412;-84
2021/07/22 06:10:16;;;;;;;;;19.50;17.25;;;;;-143.39;100.00;63593.47;4885761;29;45392;-85
2021/07/22 06:12:42;;;;;;;;;19.00;17.75;;;;;-143.39;100.00;63593.47;4868898;29;45260;-85
2021/07/22 06:15:09;;;;;;;;;21.75;19.25;;;;;-143.39;100.00;63593.47;4889995;29;45246;-84
2021/07/22 06:17:36;;;;;;;;;26.75;21.50;;;;;-143.39;100.00;63593.47;4889209;29;45435;-85
2021/07/22 06:20:03;;;;;;;;;24.25;21.00;;;;;-143.39;100.00;63593.47;4888748;29;45527;-85
2021/07/22 06:22:28;;;;;;;;;18.00;18.00;;;;;-143.39;100.00;63593.47;4872737;29;45407;-85
2021/07/22 06:24:54;;;;;;;;;28.00;20.25;;;;;-143.39;100.00;63593.47;4885793;29;45559;-87
2021/07/22 06:27:19;;;;;;;;;19.50;18.00;;;;;-143.39;100.00;63593.47;4867586;29;46723;-86
2021/07/22 06:29:45;;;;;;;;;22.00;19.00;;;;;-143.39;100.00;63593.47;4868730;29;46040;-87
2021/07/22 06:32:12;;;;;;;;;24.50;17.75;;;;;-143.39;100.00;63593.47;4886379;29;45554;-85
2021/07/22 06:34:38;;;;;;;;;23.75;20.75;;;;;-143.39;100.00;63593.47;4867390;29;45578;-85
2021/07/22 06:37:03;;;;;;;;;19.50;19.00;;;;;-143.39;100.00;63593.47;4870019;29;45568;-85
2021/07/22 06:39:32;;;;;;;;;23.75;19.75;;;;;-143.39;100.00;63593.47;4886246;29;46917;-84
2021/07/22 06:41:59;;;;;;;;;20.50;19.00;;;;;-143.39;100.00;63593.47;4886027;29;45442;-85
2021/07/22 06:44:27;;;;;;;;;22.50;19.25;;;;;-143.39;100.00;63593.47;4883717;29;45470;-84
2021/07/22 06:46:52;;;;;;;;;21.00;19.00;;;;;-143.39;100.00;63593.47;4872553;29;45431;-85
2021/07/22 06:49:17;;;;;;;;;20.75;17.75;;;;;-143.39;100.00;63593.47;4885802;29;45504;-85
2021/07/22 06:51:43;;;;;;;;;20.00;17.50;;;;;-143.39;100.00;63593.47;4887039;29;45346;-84
2021/07/22 06:54:09;;;;;;;;;21.50;20.75;;;;;-143.39;100.00;63593.47;4879192;29;45475;-85
2021/07/22 06:56:35;;;;;;;;;23.00;20.50;;;;;-143.39;100.00;63593.47;4882783;29;45244;-85
2021/07/22 06:59:00;;;;;;;;;19.25;18.25;;;;;-143.39;100.00;63593.47;4884190;29;45348;-85
2021/07/22 07:01:28;;;;;;;;;23.00;19.50;;;;;-143.39;100.00;63593.47;4885182;29;46247;-85
2021/07/22 07:03:59;;;;;;;;;29.75;22.00;;;;;-143.39;100.00;63593.47;4883925;29;45542;-85
2021/07/22 07:06:24;;;;;;;;;22.00;18.00;;;;;-143.39;100.00;63593.47;4891897;29;45647;-83
2021/07/22 07:08:50;;;;;;;;;17.75;16.25;;;;;-143.39;100.00;63593.47;4891790;29;48180;-86
2021/07/22 07:11:15;;;;;;;;;22.25;18.75;;;;;-143.39;100.00;63593.47;4891691;29;45229;-84
2021/07/22 07:13:40;;;;;;;;;21.25;16.75;;;;;-143.39;100.00;63593.47;4887299;29;45563;-83
2021/07/22 07:16:07;;;;;;;;;21.75;20.75;;;;;-143.39;100.00;63593.47;4888477;29;45262;-84
2021/07/22 07:18:33;;;;;;;;;22.00;20.25;;;;;-143.39;100.00;63593.47;4886247;29;46380;-85
2021/07/22 07:21:03;;;;;;;;;22.75;19.50;;;;;-143.39;100.00;63593.47;4880530;29;45208;-84
2021/07/22 07:23:31;;;;;;;;;26.00;20.25;;;;;-143.39;100.00;63593.47;4879862;29;45332;-84
2021/07/22 07:25:56;;;;;;;;;20.00;18.50;;;;;-143.39;100.00;63593.47;4885890;29;45244;-84
2021/07/22 07:28:22;;;;;;;;;19.25;18.25;;;;;-143.39;100.00;63593.47;4886422;29;47596;-84
2021/07/22 07:30:47;;;;;;;;;20.75;19.25;;;;;-143.39;100.00;63593.47;4883800;29;45241;-85
2021/07/22 07:33:12;;;;;;;;;19.75;18.25;;;;;-143.39;100.00;63593.47;4880890;29;45175;-84
2021/07/22 07:35:39;;;;;;;;;24.00;22.50;;;;;-143.39;100.00;63593.47;4884896;29;45272;-85
2021/07/22 07:38:05;;;;;;;;;17.75;14.25;;;;;-143.39;100.00;63593.47;4867743;29;48235;-87
2021/07/22 07:40:30;;;;;;;;;24.25;19.50;;;;;-143.39;100.00;63593.47;4884918;29;45424;-85
2021/07/22 07:42:58;;;;;;;;;23.75;21.00;;;;;-143.39;100.00;63593.47;4872260;29;45425;-85
2021/07/22 07:45:26;;;;;;;;;20.50;18.50;;;;;-143.39;100.00;63593.47;4885064;29;45653;-84
2021/07/22 07:47:52;;;;;;;;;23.00;19.00;;;;;-143.39;100.00;63593.47;4885254;29;45355;-85
2021/07/22 07:50:18;;;;;;;;;20.50;17.75;;;;;-143.39;100.00;63593.47;4885635;29;45297;-85
2021/07/22 07:52:47;;;;;;;;;18.25;16.75;;;;;-143.39;100.00;63593.47;4879228;29;45328;-85
2021/07/22 07:55:13;;;;;;;;;18.50;15.75;;;;;-143.39;100.00;63593.47;4886898;29;45340;-86
2021/07/22 07:57:39;;;;;;;;;17.50;16.00;;;;;-143.39;100.00;63593.47;4884974;29;45489;-86
2021/07/22 08:00:06;;;;;;;;;16.75;16.25;;;;;-143.39;100.00;63593.47;4884943;29;45369;-86
2021/07/22 08:02:31;;;;;;;;;14.50;14.50;;;;;-143.39;100.00;63593.47;4876226;29;45338;-86
2021/07/22 08:05:00;;;;;;;;;19.50;16.50;;;;;-143.39;100.00;63593.47;4866569;29;45381;-86
2021/07/22 08:07:36;;;;;;;;;16.75;15.00;;;;;-143.39;100.00;63593.47;4868032;29;48061;-86
2021/07/22 08:10:03;;;;;;;;;17.25;13.75;;;;;-143.39;100.00;63593.47;4864659;29;45344;-87
2021/07/22 08:12:46;;;;;;;;;;;;;;;;;;;;;
2021/07/22 08:15:25;;;;;;;;;;;;;;;;;;;;;
2021/07/22 08:17:59;;;;;;;;;13.00;13.00;;;;;-143.39;100.00;63593.47;4887109;29;74534;-86
2021/07/22 08:20:26;;;;;;;;;17.25;16.00;;;;;-143.39;100.00;63593.47;4865174;29;45379;-87
2021/07/22 08:23:17;;;;;;;;;18.00;16.50;;;;;-143.39;100.00;63593.47;4870494;29;45900;-86
2021/07/22 08:25:52;;;;;;;;;16.75;14.25;;;;;-143.39;100.00;63593.47;4867744;29;45549;-87
2021/07/22 08:28:35;;;;;;;;;;;;;;;;;;;;;
2021/07/22 08:34:30;;;;;;;;;17.75;14.75;;;;;-143.39;100.00;63593.47;4828772;29;45471;-88
2021/07/22 08:37:14;;;;;;;;;;;;;;;;;;;;;
2021/07/22 08:39:57;;;;;;;;;;;;;;;;;;;;;
2021/07/22 08:42:30;;;;;;;;;15.50;15.00;;;;;-143.39;100.00;63593.47;4878564;29;71680;-89
2021/07/22 08:44:58;;;;;;;;;18.25;15.50;;;;;-143.39;100.00;63593.47;4882840;29;45457;-88
2021/07/22 08:47:24;;;;;;;;;17.25;15.25;;;;;-143.39;100.00;63593.47;4866302;29;45837;-88
2021/07/22 08:49:50;;;;;;;;;18.50;16.00;;;;;-143.39;100.00;63593.47;4883707;29;45489;-87
2021/07/22 08:52:15;;;;;;;;;16.25;14.25;;;;;-143.39;100.00;63593.47;4878884;29;45421;-87
2021/07/22 08:54:46;;;;;;;;;17.50;16.25;;;;;-143.39;100.00;63593.47;4883403;29;45407;-87
2021/07/22 08:57:32;;;;;;;;;;;;;;;;;;;;;
2021/07/22 09:00:03;;;;;;;;;14.75;14.75;;;;;-143.39;100.00;63593.47;4885354;29;75200;-87
2021/07/22 09:02:56;;;;;;;;;;;;;;;;;;;;;
2021/07/22 09:05:28;;;;;;;;;16.75;16.75;;;;;-143.39;100.00;63593.47;4886155;29;68115;-88
2021/07/22 09:07:56;;;;;;;;;17.50;15.75;;;;;-143.39;100.00;63593.47;4885371;29;45423;-88
2021/07/22 09:10:43;;;;;;;;;;;;;;;;;;;;;
2021/07/22 09:13:44;;;;;;;;;16.50;15.75;;;;;-143.39;100.00;63593.47;4876668;29;72946;-88
2021/07/22 09:16:36;;;;;;;;;16.25;14.75;;;;;-143.39;100.00;63593.47;4858100;29;45300;-88
2021/07/22 09:19:02;;;;;;;;;17.00;16.25;;;;;-143.39;100.00;63593.47;4885702;29;45487;-88
2021/07/22 09:24:43;;;;;;;;;15.50;13.50;;;;;-143.39;100.00;63593.47;4869036;29;45352;-88
2021/07/22 09:27:38;;;;;;;;;;;;;;;;;;;;;
2021/07/22 09:30:15;;;;;;;;;15.50;15.00;;;;;-143.39;100.00;63593.47;4879581;29;72374;-88
2021/07/22 09:33:24;;;;;;;;;;;;;;;;;;;;;
2021/07/22 09:36:29;;;;;;;;;;;;;;;;;;;;;
2021/07/22 09:43:17;;;;;;;;;;;;;;;;;;;;;
2021/07/22 09:46:21;;;;;;;;;;;;;;;;;;;;;
2021/07/22 09:52:49;;;;;;;;;;;;;;;;;;;;;
2021/07/22 09:59:14;;;;;;;;;;;;;;;;;;;;;
2021/07/22 10:02:25;;;;;;;;;;;;;;;;;;;;;
2021/07/22 10:05:59;;;;;;;;;;;;;;;;;;;;;
2021/07/22 10:13:00;;;;;;;;;14.75;12.25;;;;;-143.39;100.00;63593.47;4829835;29;45596;-88
2021/07/22 10:33:40;;;;;;;;;;;;;;;;;;;;;
2021/07/22 11:02:36;;;;;;;;;;;;;;;;;;;;;
2021/07/22 11:15:28;;;;;;;;;13.00;13.00;;;;;-143.39;100.00;63593.47;4842940;29;45714;-89
2021/07/22 11:28:35;;;;;;;;;10.50;9.75;;;;;-143.39;100.00;63593.47;4861225;29;46237;-87
2021/07/22 11:31:49;;;;;;;;;;;;;;;;;;;;;
2021/07/22 11:34:57;;;;;;;;;;;;;;;;;;;;;
2021/07/22 11:37:57;;;;;;;;;14.25;14.25;;;;;-143.39;100.00;63593.47;4790022;29;72817;-88
2021/07/22 11:40:59;;;;;;;;;;;;;;;;;;;;;
2021/07/22 11:47:22;;;;;;;;;13.25;13.25;;;;;-143.39;100.00;63593.47;4847425;29;45539;-88
2021/07/22 11:49:54;;;;;;;;;16.00;13.75;;;;;-143.39;100.00;63593.47;4870661;29;45429;-88
2021/07/22 11:52:28;;;;;;;;;14.75;14.00;;;;;-143.39;100.00;63593.47;4870750;29;46259;-87
2021/07/22 11:55:38;;;;;;;;;;;;;;;;;;;;;
2021/07/22 11:58:29;;;;;;;;;15.50;13.75;;;;;-143.39;100.00;63593.47;4861824;29;67776;-87
2021/07/22 12:40:37;;;;;;;;;13.00;13.00;;;;;-143.39;100.00;63593.47;4832872;29;45510;-82
2021/07/22 15:24:57;;;;;;;;;;;;;;;;;;;;;
2021/07/22 15:28:58;;;;;;;;;;;;;;;;;;;;;
2021/07/22 15:41:40;;;;;;;;;;;;;;;;;;;;;
2021/07/22 15:44:46;;;;;;;;;;;;;;;;;;;;;
2021/07/22 15:51:13;;;;;;;;;;;;;;;;;;;;;
2021/07/22 15:57:32;;;;;;;;;;;;;;;;;;;;;
2021/07/22 16:21:12;;;;;;;;;;;;;;;;;;;;;
2021/07/22 16:23:46;;;;;;;;;13.25;12.50;;;;;-143.39;100.00;63593.47;4896790;29;47278;-85
2021/07/22 16:32:58;;;;;;;;;15.00;12.50;;;;;-143.39;100.00;63593.47;4876371;29;45322;-85
2021/07/22 16:39:00;;;;;;;;;;;;;;;;;;;;;
2021/07/22 16:42:04;;;;;;;;;;;;;;;;;;;;;
2021/07/22 16:45:00;;;;;;;;;;;;;;;;;;;;;
2021/07/22 16:47:53;;;;;;;;;;;;;;;;;;;;;
2021/07/22 16:50:34;;;;;;;;;;;;;;;;;;;;;
2021/07/22 16:53:20;;;;;;;;;;;;;;;;;;;;;
2021/07/22 16:56:19;;;;;;;;;;;;;;;;;;;;;
2021/07/22 16:58:55;;;;;;;;;;;;;;;;;;;;;
2021/07/22 17:01:35;;;;;;;;;;;;;;;;;;;;;
2021/07/22 17:04:25;;;;;;;;;;;;;;;;;;;;;
2021/07/22 17:07:06;;;;;;;;;;;;;;;;;;;;;
2021/07/22 17:09:58;;;;;;;;;;;;;;;;;;;;;
2021/07/22 17:18:26;;;;;;;;;12.50;10.75;;;;;-143.39;100.00;63593.47;4872870;29;45329;-85
2021/07/22 17:20:54;;;;;;;;;14.00;12.50;;;;;-143.39;100.00;63593.47;4883652;29;46293;-85
2021/07/22 17:23:19;;;;;;;;;15.00;13.50;;;;;-143.39;100.00;63593.47;4898678;29;45433;-84
2021/07/22 17:25:45;;;;;;;;;14.00;13.50;;;;;-143.39;100.00;63593.47;4884234;29;45313;-85
2021/07/22 17:28:11;;;;;;;;;16.00;15.00;;;;;-143.39;100.00;63593.47;4884447;29;45434;-85
2021/07/22 17:30:36;;;;;;;;;19.75;15.75;;;;;-143.39;100.00;63593.47;4883985;29;46260;-84
2021/07/22 17:33:20;;;;;;;;;12.25;12.25;;;;;-143.39;100.00;63593.47;4884137;29;45436;-85
2021/07/22 17:35:49;;;;;;;;;15.50;12.50;;;;;-143.39;100.00;63593.47;4884864;29;45234;-84
2021/07/22 17:38:21;;;;;;;;;16.25;14.00;;;;;-143.39;100.00;63593.47;4891830;29;45540;-84
2021/07/22 17:40:48;;;;;;;;;4.75;0.00;;;;;-143.39;100.00;63593.47;4890382;29;46157;-85
2021/07/22 17:43:13;;;;;;;;;14.00;13.50;;;;;-143.39;100.00;63593.47;4890064;29;45500;-84
2021/07/22 17:45:39;;;;;;;;;13.75;13.75;;;;;-143.39;100.00;63593.47;4896646;29;45404;-85
2021/07/22 17:48:05;;;;;;;;;14.50;12.75;;;;;-143.39;100.00;63593.47;4889783;29;45617;-86
2021/07/22 17:50:30;;;;;;;;;14.50;12.75;;;;;-143.39;100.00;63593.47;4892833;29;47441;-83
2021/07/22 17:52:56;;;;;;;;;14.75;13.00;;;;;-143.39;100.00;63593.47;4886493;29;45488;-83
2021/07/22 17:55:21;;;;;;;;;17.25;15.00;;;;;-143.39;100.00;63593.47;4890382;29;45352;-83